Time;durP1;ratioP1;P1;durP2;ratioP2;P2;SDS_P1;SDS_P2;PMS_P1;PMS_P2;Temp;Humidity;BMP_temperature;BMP_pressure;BME280_temperature;BME280_humidity;BME280_pressure;Samples;Min_cycle;Max_cycle;Signal;HPM_P1;HPM_P2
2023/10/09 00:03:38;;;;;;;10.40;4.32;;;;;;;;;;5074738;28;21596;-70
2023/10/09 00:06:06;;;;;;;11.27;4.55;;;;;;;;;;5074322;27;20040;-71
2023/10/09 00:08:32;;;;;;;13.82;4.60;;;;;;;;;;5073953;28;20078;-70
2023/10/09 00:11:13;;;;;;;11.57;4.63;;;;;;;;;;5073523;28;20036;-71
2023/10/09 00:13:48;;;;;;;11.60;4.55;;;;;;;;;;5074471;28;20046;-71
2023/10/09 00:16:14;;;;;;;8.75;3.95;;;;;;;;;;5074730;27;20023;-71
2023/10/09 00:18:46;;;;;;;10.70;5.05;;;;;;;;;;5073283;28;20658;-71
2023/10/09 00:21:15;;;;;;;9.60;4.90;;;;;;;;;;5055659;28;20028;-70
2023/10/09 00:23:42;;;;;;;12.73;5.03;;;;;;;;;;5072823;28;21463;-71
2023/10/09 00:26:12;;;;;;;12.48;5.25;;;;;;;;;;5074124;28;20027;-70
2023/10/09 00:28:43;;;;;;;10.45;5.07;;;;;;;;;;5070518;28;20084;-71
2023/10/09 00:31:14;;;;;;;14.50;5.68;;;;;;;;;;5074536;28;21860;-71
2023/10/09 00:33:41;;;;;;;11.07;5.07;;;;;;;;;;5073583;27;21409;-71
2023/10/09 00:36:11;;;;;;;13.40;5.30;;;;;;;;;;5054185;28;20136;-71
2023/10/09 00:38:46;;;;;;;9.95;5.25;;;;;;;;;;5072930;28;20514;-71
2023/10/09 00:41:19;;;;;;;17.52;6.95;;;;;;;;;;5073534;28;20034;-70
2023/10/09 00:43:45;;;;;;;12.70;5.68;;;;;;;;;;5073465;28;20082;-71
2023/10/09 00:46:16;;;;;;;11.82;5.90;;;;;;;;;;5073879;28;20081;-71
2023/10/09 00:48:48;;;;;;;21.27;6.90;;;;;;;;;;5072960;28;20028;-71
2023/10/09 00:51:17;;;;;;;14.20;6.75;;;;;;;;;;5073832;27;20135;-70
2023/10/09 00:53:51;;;;;;;13.63;6.95;;;;;;;;;;5073540;28;20056;-71
2023/10/09 00:57:07;;;;;;;17.05;7.35;;;;;;;;;;5074157;27;20036;-71
2023/10/09 00:59:09;;;;;;;17.92;8.43;;;;;;;;;;5059435;28;20161;-70
2023/10/09 01:01:35;;;;;;;20.45;8.30;;;;;;;;;;5073592;28;20040;-71
2023/10/09 01:04:15;;;;;;;21.13;9.40;;;;;;;;;;5072356;27;20039;-71
2023/10/09 01:06:45;;;;;;;20.52;8.52;;;;;;;;;;5070929;27;20031;-71
2023/10/09 01:09:20;;;;;;;19.48;8.57;;;;;;;;;;5072011;28;20122;-71
2023/10/09 01:12:03;;;;;;;20.95;9.90;;;;;;;;;;5071753;28;20031;-71
2023/10/09 01:14:30;;;;;;;30.20;10.47;;;;;;;;;;5072087;28;20024;-71
2023/10/09 01:16:57;;;;;;;18.30;9.93;;;;;;;;;;5071960;28;20280;-71
2023/10/09 01:19:30;;;;;;;23.38;10.45;;;;;;;;;;5069498;28;20045;-71
2023/10/09 01:22:12;;;;;;;24.98;11.82;;;;;;;;;;5073294;28;20055;-70
2023/10/09 01:24:43;;;;;;;22.13;11.05;;;;;;;;;;5072951;28;20035;-71
2023/10/09 01:27:15;;;;;;;18.85;10.75;;;;;;;;;;5072825;28;20622;-71
2023/10/09 01:29:41;;;;;;;24.02;11.10;;;;;;;;;;5071796;28;20039;-70
2023/10/09 01:32:16;;;;;;;23.23;11.27;;;;;;;;;;5073580;28;20032;-71
2023/10/09 01:34:49;;;;;;;26.02;12.15;;;;;;;;;;5073210;28;20027;-71
2023/10/09 01:37:18;;;;;;;19.88;11.43;;;;;;;;;;5073039;28;20028;-71
2023/10/09 01:39:47;;;;;;;21.58;10.93;;;;;;;;;;5074134;28;20053;-70
2023/10/09 01:42:23;;;;;;;20.25;10.80;;;;;;;;;;5072880;28;20042;-70
2023/10/09 01:44:49;;;;;;;23.77;10.98;;;;;;;;;;5072484;28;20036;-71
2023/10/09 01:47:18;;;;;;;24.88;12.32;;;;;;;;;;5070358;28;20039;-70
2023/10/09 01:49:45;;;;;;;23.30;11.23;;;;;;;;;;5069654;28;20024;-70
2023/10/09 01:52:15;;;;;;;23.40;11.93;;;;;;;;;;5071942;28;20753;-70
2023/10/09 01:54:46;;;;;;;26.23;12.57;;;;;;;;;;5053463;28;20027;-70
2023/10/09 01:57:13;;;;;;;23.80;11.63;;;;;;;;;;5061504;28;20031;-70
2023/10/09 01:59:43;;;;;;;24.63;11.75;;;;;;;;;;5072558;28;20027;-70
2023/10/09 02:02:25;;;;;;;22.73;11.63;;;;;;;;;;5072511;28;20135;-70
2023/10/09 02:05:25;;;;;;;22.40;12.40;;;;;;;;;;5071516;28;20039;-70
2023/10/09 02:07:54;;;;;;;26.02;11.63;;;;;;;;;;5071936;28;20039;-71
2023/10/09 02:12:59;;;;;;;23.73;11.95;;;;;;;;;;5071994;28;20067;-71
2023/10/09 02:20:47;;;;;;;25.70;13.40;;;;;;;;;;5072640;28;20049;-71
2023/10/09 02:23:16;;;;;;;23.17;13.10;;;;;;;;;;5071608;28;20031;-70
2023/10/09 02:25:43;;;;;;;26.15;13.05;;;;;;;;;;5072425;28;20040;-71
2023/10/09 02:28:17;;;;;;;28.10;15.02;;;;;;;;;;5070807;27;20028;-70
2023/10/09 02:30:47;;;;;;;26.20;14.82;;;;;;;;;;5052395;28;20039;-70
2023/10/09 02:33:14;;;;;;;27.98;13.60;;;;;;;;;;5072316;28;20028;-71
2023/10/09 02:35:42;;;;;;;28.60;15.88;;;;;;;;;;5071355;28;20605;-71
2023/10/09 02:38:14;;;;;;;24.15;14.73;;;;;;;;;;5072096;28;20030;-71
2023/10/09 02:41:00;;;;;;;26.65;15.93;;;;;;;;;;5071770;28;20125;-70
2023/10/09 02:43:26;;;;;;;29.63;16.60;;;;;;;;;;5072205;28;20155;-71
2023/10/09 02:45:53;;;;;;;30.75;15.93;;;;;;;;;;5071654;28;20031;-70
2023/10/09 02:48:20;;;;;;;27.80;16.17;;;;;;;;;;5071398;28;20032;-70
2023/10/09 02:50:46;;;;;;;32.45;17.30;;;;;;;;;;5053698;28;20027;-71
2023/10/09 02:53:19;;;;;;;33.38;17.92;;;;;;;;;;5072511;28;20466;-71
2023/10/09 02:58:36;;;;;;;34.33;18.83;;;;;;;;;;5071740;28;20023;-70
2023/10/09 03:01:02;;;;;;;31.58;17.98;;;;;;;;;;5072797;28;20035;-71
2023/10/09 03:03:29;;;;;;;35.03;18.88;;;;;;;;;;5070515;28;20024;-71
2023/10/09 03:05:55;;;;;;;39.72;20.70;;;;;;;;;;5071003;28;20040;-70
2023/10/09 03:08:21;;;;;;;35.80;20.80;;;;;;;;;;5071117;28;20117;-71
2023/10/09 03:10:47;;;;;;;34.40;20.15;;;;;;;;;;5071242;28;20036;-70
2023/10/09 03:13:19;;;;;;;34.30;20.80;;;;;;;;;;5070623;28;21245;-70
2023/10/09 03:15:45;;;;;;;33.33;19.63;;;;;;;;;;5070476;28;20043;-71
2023/10/09 03:18:13;;;;;;;35.47;20.20;;;;;;;;;;5070657;28;20129;-71
2023/10/09 03:20:41;;;;;;;38.20;21.33;;;;;;;;;;5050939;28;20063;-70
2023/10/09 03:23:09;;;;;;;32.13;20.30;;;;;;;;;;5070652;28;21320;-70
2023/10/09 03:25:37;;;;;;;35.63;21.42;;;;;;;;;;5071395;28;20060;-70
2023/10/09 03:28:03;;;;;;;39.88;22.75;;;;;;;;;;5069992;28;20031;-70
2023/10/09 03:30:32;;;;;;;33.00;19.88;;;;;;;;;;5069601;28;20042;-70
2023/10/09 03:33:00;;;;;;;38.88;22.60;;;;;;;;;;5068270;28;20028;-70
2023/10/09 03:35:27;;;;;;;33.05;20.13;;;;;;;;;;5070140;28;20024;-70
2023/10/09 03:38:00;;;;;;;34.45;19.98;;;;;;;;;;5069651;28;20024;-70
2023/10/09 03:40:27;;;;;;;35.33;20.45;;;;;;;;;;5069864;28;20032;-71
2023/10/09 03:42:53;;;;;;;33.97;20.45;;;;;;;;;;5070834;28;20057;-71
2023/10/09 03:45:26;;;;;;;38.45;21.35;;;;;;;;;;5071163;28;20039;-71
2023/10/09 03:47:57;;;;;;;30.85;19.65;;;;;;;;;;5070595;28;20088;-71
2023/10/09 03:50:26;;;;;;;33.92;18.90;;;;;;;;;;5070027;28;20039;-71
2023/10/09 03:52:52;;;;;;;33.30;19.73;;;;;;;;;;5070789;28;20919;-71
2023/10/09 03:55:21;;;;;;;32.28;19.00;;;;;;;;;;5070638;28;20042;-71
2023/10/09 03:57:47;;;;;;;36.15;19.08;;;;;;;;;;5070146;28;20036;-71
2023/10/09 04:00:27;;;;;;;30.73;17.75;;;;;;;;;;5070350;28;20114;-71
2023/10/09 04:02:53;;;;;;;28.50;17.67;;;;;;;;;;5070690;28;20031;-70
2023/10/09 04:05:20;;;;;;;26.73;16.55;;;;;;;;;;5070213;28;20502;-71
2023/10/09 04:07:47;;;;;;;25.48;17.20;;;;;;;;;;5070131;28;20036;-70
2023/10/09 04:12:58;;;;;;;25.65;16.08;;;;;;;;;;5070879;28;20169;-71
2023/10/09 04:15:24;;;;;;;31.52;18.25;;;;;;;;;;5070179;28;20066;-70
2023/10/09 04:17:51;;;;;;;27.92;16.42;;;;;;;;;;5070259;28;20169;-70
2023/10/09 04:25:29;;;;;;;29.77;17.27;;;;;;;;;;5070731;28;20051;-71
2023/10/09 04:30:40;;;;;;;27.80;17.63;;;;;;;;;;5074440;28;20847;-71
2023/10/09 04:33:11;;;;;;;31.90;19.02;;;;;;;;;;5073558;27;20056;-70
2023/10/09 04:35:38;;;;;;;28.00;15.55;;;;;;;;;;5074678;28;20124;-70
2023/10/09 04:38:05;;;;;;;30.77;17.10;;;;;;;;;;5057266;28;20027;-71
2023/10/09 04:43:20;;;;;;;29.65;16.25;;;;;;;;;;5073842;28;20768;-71
2023/10/09 04:48:37;;;;;;;28.67;15.98;;;;;;;;;;5073776;28;20047;-71
2023/10/09 04:54:39;;;;;;;24.30;15.20;;;;;;;;;;5073926;28;20475;-70
2023/10/09 04:56:51;;;;;;;24.23;14.80;;;;;;;;;;5065891;28;20046;-70
2023/10/09 04:59:18;;;;;;;30.05;14.65;;;;;;;;;;5073851;28;20035;-70
2023/10/09 05:01:49;;;;;;;23.00;14.90;;;;;;;;;;5072855;28;20040;-71
2023/10/09 05:04:34;;;;;;;28.38;14.82;;;;;;;;;;5074025;28;20595;-70
2023/10/09 05:07:22;;;;;;;28.77;14.98;;;;;;;;;;5072406;27;20115;-70
2023/10/09 05:09:55;;;;;;;26.73;14.40;;;;;;;;;;5073312;28;20048;-70
2023/10/09 05:12:26;;;;;;;26.00;12.55;;;;;;;;;;5073064;28;20032;-70
2023/10/09 05:15:08;;;;;;;22.73;13.07;;;;;;;;;;5073047;28;20424;-71
2023/10/09 05:17:35;;;;;;;25.95;13.30;;;;;;;;;;5071987;28;20036;-70
2023/10/09 05:23:23;;;;;;;23.58;13.65;;;;;;;;;;5051833;28;20505;-71
2023/10/09 05:25:58;;;;;;;20.63;11.15;;;;;;;;;;5072929;28;20062;-71
2023/10/09 05:28:48;;;;;;;26.23;12.88;;;;;;;;;;5071229;28;20036;-71
2023/10/09 05:31:44;;;;;;;19.77;10.52;;;;;;;;;;5070294;28;20044;-71
2023/10/09 05:34:01;;;;;;;18.80;10.93;;;;;;;;;;5072137;28;20047;-71
2023/10/09 05:39:17;;;;;;;20.83;10.85;;;;;;;;;;5069448;28;20170;-71
2023/10/09 05:49:47;;;;;;;21.10;9.20;;;;;;;;;;5072891;27;20047;-70
2023/10/09 06:08:24;;;;;;;20.55;8.77;;;;;;;;;;5071296;28;20027;-70
2023/10/09 06:11:05;;;;;;;14.20;8.07;;;;;;;;;;5071202;27;20036;-70
2023/10/09 06:13:37;;;;;;;23.90;7.75;;;;;;;;;;5072849;28;20032;-71
2023/10/09 06:16:19;;;;;;;19.27;9.05;;;;;;;;;;5071757;28;21553;-71
2023/10/09 06:18:54;;;;;;;22.55;7.93;;;;;;;;;;5071335;28;20048;-70
2023/10/09 06:24:23;;;;;;;16.83;7.82;;;;;;;;;;5042381;28;20043;-71
2023/10/09 06:29:38;;;;;;;15.43;7.65;;;;;;;;;;5070040;28;20132;-69
2023/10/09 06:34:56;;;;;;;16.55;8.13;;;;;;;;;;5072160;28;20501;-70
2023/10/09 06:42:33;;;;;;;13.00;7.60;;;;;;;;;;5071989;28;20036;-71
2023/10/09 06:45:04;;;;;;;15.82;8.60;;;;;;;;;;5072444;28;20101;-71
2023/10/09 06:47:36;;;;;;;18.25;8.20;;;;;;;;;;5072844;28;20028;-71
2023/10/09 06:56:05;;;;;;;21.70;9.30;;;;;;;;;;5072179;28;20043;-71
2023/10/09 06:58:41;;;;;;;19.77;8.00;;;;;;;;;;5070794;28;20622;-71
2023/10/09 07:01:23;;;;;;;22.88;8.95;;;;;;;;;;5072370;28;20031;-70
2023/10/09 07:03:52;;;;;;;18.35;8.00;;;;;;;;;;5071471;28;20047;-70
2023/10/09 07:06:47;;;;;;;18.92;7.60;;;;;;;;;;5071643;28;20028;-71
2023/10/09 07:27:43;;;;;;;22.48;8.23;;;;;;;;;;5069148;28;20030;-71
2023/10/09 07:32:55;;;;;;;21.60;7.90;;;;;;;;;;5069787;28;20035;-71
2023/10/09 07:38:35;;;;;;;18.33;7.85;;;;;;;;;;4986495;28;20030;-70
2023/10/09 07:43:45;;;;;;;23.00;8.88;;;;;;;;;;5033808;28;20070;-71
2023/10/09 07:46:30;;;;;;;18.85;8.18;;;;;;;;;;5070607;28;20031;-70
2023/10/09 07:49:08;;;;;;;17.38;7.72;;;;;;;;;;5071598;28;20039;-70
2023/10/09 07:51:35;;;;;;;18.45;8.50;;;;;;;;;;5070435;28;20031;-70
2023/10/09 07:54:07;;;;;;;14.60;7.90;;;;;;;;;;5071128;28;20931;-70
2023/10/09 07:56:39;;;;;;;22.05;8.48;;;;;;;;;;5070216;28;20032;-71
2023/10/09 07:59:10;;;;;;;19.83;8.80;;;;;;;;;;5067322;28;20142;-70
2023/10/09 08:01:38;;;;;;;19.13;8.43;;;;;;;;;;5069486;28;20027;-70
2023/10/09 08:04:14;;;;;;;18.90;8.25;;;;;;;;;;5072426;28;20102;-70
2023/10/09 08:06:42;;;;;;;22.88;8.63;;;;;;;;;;5075163;28;20035;-70
2023/10/09 08:17:15;;;;;;;17.45;9.07;;;;;;;;;;5072739;28;20399;-71
2023/10/09 08:19:53;;;;;;;21.17;8.60;;;;;;;;;;5073599;27;20055;-71
2023/10/09 08:24:58;;;;;;;22.70;7.93;;;;;;;;;;5076809;28;20044;-71
2023/10/09 08:32:43;;;;;;;20.10;7.18;;;;;;;;;;5078689;28;20864;-69
2023/10/09 08:35:32;;;;;;;22.95;8.52;;;;;;;;;;5079674;28;20058;-69
2023/10/09 08:38:00;;;;;;;24.27;7.70;;;;;;;;;;5079873;28;20047;-69
2023/10/09 08:40:46;;;;;;;20.83;8.45;;;;;;;;;;5080436;28;20118;-69
2023/10/09 08:43:19;;;;;;;20.67;8.05;;;;;;;;;;5078898;28;20028;-70
2023/10/09 08:45:46;;;;;;;16.30;7.65;;;;;;;;;;5078365;28;20026;-69
2023/10/09 08:48:15;;;;;;;21.17;8.45;;;;;;;;;;5080022;28;20039;-69
2023/10/09 08:50:43;;;;;;;22.05;8.10;;;;;;;;;;5078679;28;20136;-69
2023/10/09 08:53:10;;;;;;;25.48;8.07;;;;;;;;;;5079300;28;20027;-69
2023/10/09 08:55:38;;;;;;;20.85;7.30;;;;;;;;;;5079649;28;20517;-69
2023/10/09 08:58:20;;;;;;;20.92;8.43;;;;;;;;;;5079792;28;20019;-69
2023/10/09 09:00:47;;;;;;;20.67;8.13;;;;;;;;;;5080000;28;21281;-69
2023/10/09 09:03:16;;;;;;;18.42;6.85;;;;;;;;;;5060798;28;20138;-69
2023/10/09 09:05:46;;;;;;;19.75;7.82;;;;;;;;;;5078265;28;20030;-69
2023/10/09 09:08:24;;;;;;;19.67;7.60;;;;;;;;;;5080105;28;20036;-69
2023/10/09 09:11:14;;;;;;;17.00;7.28;;;;;;;;;;5080334;28;20431;-69
2023/10/09 09:13:49;;;;;;;18.02;7.38;;;;;;;;;;5078852;28;20024;-69
2023/10/09 09:16:20;;;;;;;21.67;8.35;;;;;;;;;;5079600;28;20024;-69
2023/10/09 09:18:56;;;;;;;22.90;7.60;;;;;;;;;;5043152;28;20095;-69
2023/10/09 09:21:22;;;;;;;18.67;7.15;;;;;;;;;;5040829;28;20090;-69
2023/10/09 09:24:00;;;;;;;20.42;8.32;;;;;;;;;;5039929;28;20033;-68
2023/10/09 09:26:44;;;;;;;19.77;7.20;;;;;;;;;;5037877;28;20043;-69
2023/10/09 09:29:11;;;;;;;22.02;7.53;;;;;;;;;;5040840;28;20025;-68
2023/10/09 09:31:38;;;;;;;20.65;7.07;;;;;;;;;;5039352;28;20036;-69
2023/10/09 09:34:12;;;;;;;19.63;7.25;;;;;;;;;;5038972;28;20029;-69
2023/10/09 09:36:53;;;;;;;19.55;7.45;;;;;;;;;;5039786;28;20120;-69
2023/10/09 09:39:26;;;;;;;19.02;7.45;;;;;;;;;;5045381;28;20037;-69
2023/10/09 09:41:52;;;;;;;14.82;6.90;;;;;;;;;;5038675;28;20035;-69
2023/10/09 09:44:21;;;;;;;13.45;6.80;;;;;;;;;;5039162;28;20171;-69
2023/10/09 09:46:48;;;;;;;16.70;7.03;;;;;;;;;;5038614;28;20155;-69
2023/10/09 09:49:21;;;;;;;18.50;6.05;;;;;;;;;;5039107;28;20025;-69
2023/10/09 09:51:47;;;;;;;;;;;;;;;;;;5039345;28;20119;-69
2023/10/09 09:54:18;;;;;;;17.80;6.65;;;;;;;;;;5039200;28;19970;-69
2023/10/09 09:56:50;;;;;;;18.17;6.35;;;;;;;;;;5038344;28;20024;-70
2023/10/09 09:59:21;;;;;;;16.55;6.45;;;;;;;;;;5039352;28;20030;-69
2023/10/09 10:01:56;;;;;;;15.45;5.90;;;;;;;;;;5039100;28;20139;-69
2023/10/09 10:04:24;;;;;;;19.60;5.95;;;;;;;;;;5039212;28;20794;-69
2023/10/09 10:06:54;;;;;;;18.55;5.57;;;;;;;;;;5037649;28;20033;-69
2023/10/09 10:09:41;;;;;;;20.10;5.68;;;;;;;;;;5038300;28;20025;-70
2023/10/09 10:12:09;;;;;;;17.88;6.40;;;;;;;;;;5039202;28;20056;-70
2023/10/09 10:15:14;;;;;;;16.58;6.13;;;;;;;;;;5036794;28;20024;-70
2023/10/09 10:18:18;;;;;;;18.48;6.10;;;;;;;;;;5048631;28;20063;-68
2023/10/09 10:21:16;;;;;;;16.17;5.47;;;;;;;;;;5032573;28;20070;-70
2023/10/09 10:23:46;;;;;;;15.88;5.32;;;;;;;;;;5061957;28;20050;-69
2023/10/09 10:26:30;;;;;;;13.43;5.45;;;;;;;;;;5078804;28;20968;-69
2023/10/09 10:29:23;;;;;;;13.45;5.50;;;;;;;;;;5078739;28;20145;-69
2023/10/09 10:31:56;;;;;;;24.98;6.72;;;;;;;;;;5079265;28;20028;-69
2023/10/09 10:34:23;;;;;;;18.63;6.18;;;;;;;;;;5076494;28;20027;-69
2023/10/09 10:36:58;;;;;;;19.55;6.50;;;;;;;;;;5078560;28;20028;-69
2023/10/09 10:39:42;;;;;;;18.67;5.80;;;;;;;;;;5078257;28;20163;-69
2023/10/09 10:44:53;;;;;;;16.25;5.07;;;;;;;;;;5078947;28;20038;-70
2023/10/09 10:47:32;;;;;;;18.02;5.78;;;;;;;;;;5078375;28;21484;-70
2023/10/09 10:49:58;;;;;;;12.70;5.43;;;;;;;;;;5079073;28;20027;-69
2023/10/09 10:52:41;;;;;;;20.25;5.78;;;;;;;;;;5078609;28;20036;-70
2023/10/09 10:55:18;;;;;;;18.17;6.10;;;;;;;;;;5078419;28;20498;-70
2023/10/09 10:58:00;;;;;;;20.20;6.20;;;;;;;;;;5078679;28;20758;-69
2023/10/09 11:03:29;;;;;;;24.10;6.53;;;;;;;;;;5077904;28;20055;-70
2023/10/09 11:05:55;;;;;;;20.10;5.50;;;;;;;;;;5077194;28;20142;-70
2023/10/09 11:08:30;;;;;;;24.60;5.95;;;;;;;;;;5076422;28;20028;-70
2023/10/09 11:11:15;;;;;;;16.65;5.78;;;;;;;;;;5076439;28;20409;-69
2023/10/09 11:13:53;;;;;;;19.10;5.78;;;;;;;;;;5077147;28;20038;-70
2023/10/09 11:16:41;;;;;;;16.80;5.95;;;;;;;;;;5076798;28;20066;-70
2023/10/09 11:24:35;;;;;;;16.98;4.80;;;;;;;;;;5077611;28;20036;-69
2023/10/09 11:27:05;;;;;;;15.05;5.00;;;;;;;;;;5075985;28;21350;-69
2023/10/09 11:32:18;;;;;;;15.70;4.72;;;;;;;;;;5077863;28;20058;-70
2023/10/09 11:34:51;;;;;;;18.50;5.47;;;;;;;;;;5076787;28;20120;-69
2023/10/09 11:38:01;;;;;;;17.42;3.75;;;;;;;;;;5078722;28;20030;-70
2023/10/09 11:40:23;;;;;;;19.00;4.75;;;;;;;;;;5069218;28;20720;-69
2023/10/09 11:42:49;;;;;;;15.18;4.55;;;;;;;;;;5081373;28;20437;-70
2023/10/09 11:45:29;;;;;;;17.08;5.15;;;;;;;;;;5081457;28;20028;-70
2023/10/09 11:47:57;;;;;;;14.52;4.45;;;;;;;;;;5075332;28;20134;-70
2023/10/09 11:53:46;;;;;;;13.75;4.30;;;;;;;;;;5060656;28;20036;-70
2023/10/09 11:56:17;;;;;;;17.30;4.18;;;;;;;;;;5076358;28;20040;-70
2023/10/09 11:58:43;;;;;;;17.05;3.80;;;;;;;;;;5076735;28;20027;-70
2023/10/09 12:01:20;;;;;;;15.77;3.92;;;;;;;;;;5076766;28;20035;-70
2023/10/09 12:03:53;;;;;;;13.85;3.83;;;;;;;;;;5076929;28;20709;-70
2023/10/09 12:06:22;;;;;;;15.45;4.10;;;;;;;;;;5076796;28;20038;-70
2023/10/09 12:08:48;;;;;;;14.40;3.47;;;;;;;;;;5076411;28;20036;-70
2023/10/09 12:11:22;;;;;;;14.00;3.20;;;;;;;;;;5075164;28;20032;-70
2023/10/09 12:13:48;;;;;;;12.40;2.95;;;;;;;;;;5074860;28;20898;-70
2023/10/09 12:16:15;;;;;;;14.70;4.00;;;;;;;;;;5074492;28;20034;-69
2023/10/09 12:18:42;;;;;;;16.13;3.90;;;;;;;;;;5075671;28;20070;-70
2023/10/09 12:21:15;;;;;;;11.23;3.10;;;;;;;;;;5076129;28;20142;-70
2023/10/09 12:23:44;;;;;;;12.05;3.70;;;;;;;;;;5076393;28;20031;-69
2023/10/09 12:26:16;;;;;;;14.52;3.33;;;;;;;;;;5076659;28;20027;-70
2023/10/09 12:28:45;;;;;;;8.35;2.72;;;;;;;;;;5076160;28;20038;-70
2023/10/09 12:31:14;;;;;;;12.38;3.90;;;;;;;;;;5075902;28;20089;-70
2023/10/09 12:33:41;;;;;;;11.73;3.40;;;;;;;;;;5075385;28;20039;-70
2023/10/09 12:36:07;;;;;;;12.55;3.17;;;;;;;;;;5076094;28;20039;-69
2023/10/09 12:38:33;;;;;;;13.90;3.97;;;;;;;;;;5074606;28;20114;-70
2023/10/09 12:41:08;;;;;;;14.32;3.33;;;;;;;;;;5075144;28;21942;-70
2023/10/09 12:43:37;;;;;;;11.98;3.45;;;;;;;;;;5057150;28;20107;-70
2023/10/09 12:46:07;;;;;;;13.57;3.28;;;;;;;;;;5075809;28;20035;-69
2023/10/09 12:48:33;;;;;;;11.82;3.53;;;;;;;;;;5075465;28;20082;-70
2023/10/09 12:51:05;;;;;;;13.02;3.58;;;;;;;;;;5055033;28;20043;-70
2023/10/09 12:53:32;;;;;;;11.77;3.50;;;;;;;;;;5074547;28;20028;-70
2023/10/09 12:55:58;;;;;;;12.00;3.25;;;;;;;;;;5076184;28;21736;-70
2023/10/09 12:58:26;;;;;;;9.40;3.03;;;;;;;;;;5075296;28;20063;-70
2023/10/09 13:00:53;;;;;;;11.85;3.10;;;;;;;;;;5075807;28;20184;-70
2023/10/09 13:03:21;;;;;;;12.05;3.45;;;;;;;;;;5075198;28;20503;-69
2023/10/09 13:05:58;;;;;;;10.30;3.78;;;;;;;;;;5056382;28;20052;-69
2023/10/09 13:08:31;;;;;;;9.85;3.28;;;;;;;;;;5074713;28;20031;-70
2023/10/09 13:11:00;;;;;;;13.35;3.80;;;;;;;;;;5075465;28;20623;-70
2023/10/09 13:13:42;;;;;;;9.52;2.88;;;;;;;;;;5073672;28;20028;-70
2023/10/09 13:16:20;;;;;;;11.93;3.17;;;;;;;;;;5074249;28;20028;-70
2023/10/09 13:18:52;;;;;;;10.40;3.70;;;;;;;;;;5074428;28;20040;-70
2023/10/09 13:21:22;;;;;;;12.80;2.97;;;;;;;;;;5056006;28;20059;-70
2023/10/09 13:23:49;;;;;;;16.15;3.40;;;;;;;;;;5074779;28;21366;-69
2023/10/09 13:26:29;;;;;;;12.25;3.15;;;;;;;;;;5074274;28;20115;-70
2023/10/09 13:28:56;;;;;;;10.82;3.10;;;;;;;;;;5074443;28;20042;-69
2023/10/09 13:31:25;;;;;;;13.77;3.30;;;;;;;;;;5074030;28;20046;-70
2023/10/09 13:33:56;;;;;;;9.35;3.25;;;;;;;;;;5074071;28;20039;-70
2023/10/09 13:36:32;;;;;;;12.93;3.05;;;;;;;;;;5073042;28;20034;-69
2023/10/09 13:39:52;;;;;;;9.77;3.40;;;;;;;;;;5074104;28;20498;-70
2023/10/09 13:41:49;;;;;;;11.52;3.38;;;;;;;;;;5065319;28;20730;-70
2023/10/09 13:44:16;;;;;;;9.60;2.90;;;;;;;;;;5072647;27;20043;-70
2023/10/09 13:46:42;;;;;;;8.60;2.53;;;;;;;;;;5072113;28;20027;-69
2023/10/09 13:49:12;;;;;;;12.85;3.35;;;;;;;;;;5059713;28;20662;-70
2023/10/09 13:51:44;;;;;;;11.00;3.05;;;;;;;;;;5071597;28;20111;-70
2023/10/09 13:54:18;;;;;;;9.37;3.13;;;;;;;;;;5072162;28;20031;-69
2023/10/09 13:56:44;;;;;;;15.48;3.53;;;;;;;;;;5071406;28;20031;-69
2023/10/09 13:59:10;;;;;;;8.68;3.08;;;;;;;;;;5072096;28;20047;-69
2023/10/09 14:01:38;;;;;;;9.35;3.05;;;;;;;;;;5071521;28;20054;-70
2023/10/09 14:04:07;;;;;;;8.43;3.42;;;;;;;;;;5072372;28;20043;-70
2023/10/09 14:06:33;;;;;;;9.07;2.90;;;;;;;;;;5051396;28;20035;-70
2023/10/09 14:09:09;;;;;;;10.65;3.15;;;;;;;;;;5070726;28;20035;-70
2023/10/09 14:11:37;;;;;;;6.70;2.50;;;;;;;;;;5069656;28;20042;-70
2023/10/09 14:14:11;;;;;;;8.23;2.85;;;;;;;;;;5071231;28;20030;-70
2023/10/09 14:16:42;;;;;;;8.98;2.92;;;;;;;;;;5073312;27;20474;-69
2023/10/09 14:19:13;;;;;;;11.18;2.80;;;;;;;;;;5072007;28;20067;-69
2023/10/09 14:21:40;;;;;;;8.95;3.13;;;;;;;;;;5072056;28;20162;-69
2023/10/09 14:24:15;;;;;;;8.27;2.60;;;;;;;;;;5053674;28;20039;-69
2023/10/09 14:26:41;;;;;;;17.10;2.97;;;;;;;;;;5070706;28;20110;-69
2023/10/09 14:29:07;;;;;;;15.90;3.67;;;;;;;;;;5071415;27;20666;-70
2023/10/09 14:31:38;;;;;;;11.68;3.85;;;;;;;;;;5070465;28;20119;-69
2023/10/09 14:34:09;;;;;;;10.68;3.03;;;;;;;;;;5071346;28;20751;-69
2023/10/09 14:36:35;;;;;;;12.70;3.17;;;;;;;;;;5071093;28;20063;-69
2023/10/09 14:39:01;;;;;;;8.57;3.65;;;;;;;;;;5071173;27;20124;-69
2023/10/09 14:41:32;;;;;;;9.23;3.35;;;;;;;;;;5071999;27;20028;-69
2023/10/09 14:43:59;;;;;;;12.13;2.65;;;;;;;;;;5071268;28;20040;-69
2023/10/09 14:46:25;;;;;;;17.45;3.50;;;;;;;;;;5070570;28;20043;-69
2023/10/09 14:48:55;;;;;;;11.70;3.25;;;;;;;;;;5071399;28;20673;-69
2023/10/09 14:51:29;;;;;;;14.63;3.45;;;;;;;;;;5071661;28;20046;-69
2023/10/09 14:54:01;;;;;;;8.88;3.20;;;;;;;;;;5071460;28;20688;-69
2023/10/09 14:56:30;;;;;;;11.93;3.10;;;;;;;;;;5071726;28;20051;-69
2023/10/09 14:59:01;;;;;;;13.65;3.30;;;;;;;;;;5069706;28;20028;-69
2023/10/09 15:01:29;;;;;;;13.32;3.70;;;;;;;;;;5071306;28;20955;-69
2023/10/09 15:03:59;;;;;;;13.50;2.95;;;;;;;;;;5070496;28;20095;-69
2023/10/09 15:06:27;;;;;;;12.50;3.30;;;;;;;;;;5069410;28;20097;-69
2023/10/09 15:08:53;;;;;;;9.88;3.67;;;;;;;;;;5070817;28;20122;-69
2023/10/09 15:11:23;;;;;;;8.98;2.83;;;;;;;;;;5065848;28;20028;-69
2023/10/09 15:13:49;;;;;;;10.68;3.03;;;;;;;;;;5066637;28;20039;-69
2023/10/09 15:16:15;;;;;;;8.80;2.53;;;;;;;;;;5070612;28;20136;-69
2023/10/09 15:18:41;;;;;;;11.40;3.10;;;;;;;;;;5071150;28;20582;-70
2023/10/09 15:21:08;;;;;;;10.60;2.88;;;;;;;;;;5071654;28;20942;-69
2023/10/09 15:23:36;;;;;;;11.82;3.38;;;;;;;;;;5071161;28;20052;-70
2023/10/09 15:26:02;;;;;;;10.35;3.47;;;;;;;;;;5070844;28;20134;-69
2023/10/09 15:28:32;;;;;;;10.88;2.70;;;;;;;;;;5070310;28;21793;-69
2023/10/09 15:30:58;;;;;;;11.90;3.22;;;;;;;;;;5069739;28;20049;-69
2023/10/09 15:33:30;;;;;;;12.48;2.78;;;;;;;;;;5070407;28;20984;-69
2023/10/09 15:35:56;;;;;;;13.98;3.30;;;;;;;;;;5069669;28;20035;-69
2023/10/09 15:38:25;;;;;;;13.20;3.42;;;;;;;;;;5059953;28;20032;-69
2023/10/09 15:40:51;;;;;;;12.85;3.10;;;;;;;;;;5069681;28;20142;-70
2023/10/09 15:43:17;;;;;;;10.75;2.83;;;;;;;;;;5067573;28;21089;-70
2023/10/09 15:45:50;;;;;;;15.02;3.10;;;;;;;;;;5067658;28;20093;-69
2023/10/09 15:48:17;;;;;;;;;;;;;;;;;;5070698;28;20036;-69
2023/10/09 15:50:51;;;;;;;11.30;2.75;;;;;;;;;;5068098;28;20769;-69
2023/10/09 15:53:17;;;;;;;11.55;2.95;;;;;;;;;;5068664;28;20025;-69
2023/10/09 15:55:51;;;;;;;11.48;2.78;;;;;;;;;;5052464;28;20032;-69
2023/10/09 15:58:17;;;;;;;12.73;3.03;;;;;;;;;;5070318;28;20123;-69
2023/10/09 16:00:46;;;;;;;14.45;2.92;;;;;;;;;;5069715;28;20150;-69
2023/10/09 16:03:13;;;;;;;10.60;2.85;;;;;;;;;;5069423;28;20446;-69
2023/10/09 16:05:40;;;;;;;9.30;2.33;;;;;;;;;;5066005;28;20090;-69
2023/10/09 16:08:08;;;;;;;10.13;2.70;;;;;;;;;;5068680;28;20028;-69
2023/10/09 16:10:34;;;;;;;12.32;2.88;;;;;;;;;;5067916;28;20043;-70
2023/10/09 16:13:00;;;;;;;9.55;3.10;;;;;;;;;;5070205;28;20024;-69
2023/10/09 16:15:27;;;;;;;9.95;2.65;;;;;;;;;;5068875;28;20124;-69
2023/10/09 16:18:03;;;;;;;9.85;2.45;;;;;;;;;;5045365;28;20472;-69
2023/10/09 16:20:31;;;;;;;11.32;2.65;;;;;;;;;;5068837;28;20081;-69
2023/10/09 16:22:58;;;;;;;11.07;2.55;;;;;;;;;;5069105;28;20024;-69
2023/10/09 16:25:26;;;;;;;8.52;2.05;;;;;;;;;;5073413;27;20036;-69
2023/10/09 16:27:54;;;;;;;11.32;2.70;;;;;;;;;;5073825;28;20043;-69
2023/10/09 16:30:24;;;;;;;11.43;2.47;;;;;;;;;;5073544;27;20062;-69
2023/10/09 16:32:50;;;;;;;7.93;2.28;;;;;;;;;;5071387;28;20039;-69
2023/10/09 16:35:17;;;;;;;8.90;2.47;;;;;;;;;;5073034;28;20530;-70
2023/10/09 16:37:43;;;;;;;7.70;2.28;;;;;;;;;;5073334;27;20027;-70
2023/10/09 16:40:12;;;;;;;9.43;3.47;;;;;;;;;;5072468;28;20063;-70
2023/10/09 16:42:40;;;;;;;10.30;2.55;;;;;;;;;;5072716;28;20041;-70
2023/10/09 16:45:08;;;;;;;10.57;2.45;;;;;;;;;;5072299;27;20036;-69
2023/10/09 16:47:38;;;;;;;12.40;3.22;;;;;;;;;;5073095;28;20093;-69
2023/10/09 16:50:09;;;;;;;9.52;2.35;;;;;;;;;;5073762;28;20035;-69
2023/10/09 16:52:37;;;;;;;7.40;2.13;;;;;;;;;;5073076;27;20032;-70
2023/10/09 16:55:08;;;;;;;11.13;2.75;;;;;;;;;;5052913;28;20029;-69
2023/10/09 16:57:34;;;;;;;9.18;2.75;;;;;;;;;;5071421;28;20140;-70
2023/10/09 17:00:00;;;;;;;11.00;2.78;;;;;;;;;;5071227;28;20036;-70
2023/10/09 17:02:27;;;;;;;8.80;2.13;;;;;;;;;;5072807;28;20032;-69
2023/10/09 17:04:54;;;;;;;8.18;2.15;;;;;;;;;;5073504;27;21819;-69
2023/10/09 17:07:24;;;;;;;11.70;2.75;;;;;;;;;;5073839;28;20056;-69
2023/10/09 17:09:50;;;;;;;8.32;2.85;;;;;;;;;;5071709;28;20151;-69
2023/10/09 17:12:17;;;;;;;11.43;2.80;;;;;;;;;;5072311;28;20028;-69
2023/10/09 17:14:43;;;;;;;8.00;2.03;;;;;;;;;;5073083;28;20028;-69